Decoded Metar for KS33 ( in ) (IATA:) | Meteo·Mobile Aviation Weather
aviador You're here:

KS33 Decoded Metar

in
Report Time2018-09-22 10:35:00
UTC Time2018-09-22 10:43:52
Flight Rules vfr VFR
Wind220° at 14 Gusting to 20 kt
W.Rank220° ranks 18
Current wind is above 220° avg. (9.2)
Visibility9999 m
Phenomena:N/A
Clouds:N/A
Expected CloudBase > 3,600 ft AGL from Temp-Dew spread
CeilingNone
Temp16°C
Dew Point07°C (55% RH)
AAT10.3°C
QNH1016 hPa
Raw Report
METAR KS33 221035Z AUTO 22014G20KT 10SM CLR 16/07 A2999 RMK AO2=

Extra information for KS33:More info

Social comments